sensor_id;sensor_type;location;lat;lon;timestamp;pressure;altitude;pressure_sealevel;temperature;humidity
56992;BME280;42885;49.754;18.636;2023-02-07T00:00:13;100648.71;;;-8.78;100.00
56992;BME280;42885;49.754;18.636;2023-02-07T00:02:46;100627.14;;;-9.08;100.00
56992;BME280;42885;49.754;18.636;2023-02-07T00:05:17;100605.45;;;-9.91;100.00
56992;BME280;42885;49.754;18.636;2023-02-07T00:07:49;100606.00;;;-9.82;100.00
56992;BME280;42885;49.754;18.636;2023-02-07T00:10:20;100605.75;;;-9.72;100.00
56992;BME280;42885;49.754;18.636;2023-02-07T00:12:51;100606.02;;;-9.45;100.00
56992;BME280;42885;49.754;18.636;2023-02-07T00:15:22;100582.61;;;-9.18;100.00
56992;BME280;42885;49.754;18.636;2023-02-07T00:17:54;100594.88;;;-9.41;100.00
56992;BME280;42885;49.754;18.636;2023-02-07T00:20:25;100591.02;;;-9.34;100.00
56992;BME280;42885;49.754;18.636;2023-02-07T00:22:56;100595.63;;;-9.05;100.00
56992;BME280;42885;49.754;18.636;2023-02-07T00:25:27;100593.20;;;-9.10;100.00
56992;BME280;42885;49.754;18.636;2023-02-07T00:27:58;100618.38;;;-9.21;100.00
56992;BME280;42885;49.754;18.636;2023-02-07T00:30:29;100630.28;;;-9.42;100.00
56992;BME280;42885;49.754;18.636;2023-02-07T00:33:00;100621.77;;;-9.21;100.00
56992;BME280;42885;49.754;18.636;2023-02-07T00:35:31;100622.12;;;-9.30;100.00
56992;BME280;42885;49.754;18.636;2023-02-07T00:38:02;100618.02;;;-9.93;100.00
56992;BME280;42885;49.754;18.636;2023-02-07T00:40:34;100609.09;;;-10.01;100.00
56992;BME280;42885;49.754;18.636;2023-02-07T00:43:05;100625.45;;;-9.96;100.00
56992;BME280;42885;49.754;18.636;2023-02-07T00:45:37;100632.59;;;-10.11;100.00
56992;BME280;42885;49.754;18.636;2023-02-07T00:48:09;100607.75;;;-10.10;100.00
56992;BME280;42885;49.754;18.636;2023-02-07T00:50:40;100618.47;;;-9.85;100.00
56992;BME280;42885;49.754;18.636;2023-02-07T00:53:11;100616.90;;;-9.55;100.00
56992;BME280;42885;49.754;18.636;2023-02-07T00:55:42;100607.67;;;-9.46;100.00
56992;BME280;42885;49.754;18.636;2023-02-07T00:58:13;100596.47;;;-9.34;100.00
56992;BME280;42885;49.754;18.636;2023-02-07T01:00:45;100608.67;;;-9.35;100.00
56992;BME280;42885;49.754;18.636;2023-02-07T01:03:17;100607.72;;;-9.22;100.00
56992;BME280;42885;49.754;18.636;2023-02-07T01:05:48;100603.05;;;-9.23;100.00
56992;BME280;42885;49.754;18.636;2023-02-07T01:08:19;100593.28;;;-9.23;100.00
56992;BME280;42885;49.754;18.636;2023-02-07T01:10:50;100597.61;;;-9.81;100.00
56992;BME280;42885;49.754;18.636;2023-02-07T01:13:21;100613.23;;;-9.88;100.00
56992;BME280;42885;49.754;18.636;2023-02-07T01:15:52;100602.98;;;-9.83;100.00
56992;BME280;42885;49.754;18.636;2023-02-07T01:18:24;100610.34;;;-9.73;100.00
56992;BME280;42885;49.754;18.636;2023-02-07T01:20:55;100602.48;;;-9.41;100.00
56992;BME280;42885;49.754;18.636;2023-02-07T01:23:26;100602.27;;;-9.37;100.00
56992;BME280;42885;49.754;18.636;2023-02-07T01:25:57;100601.91;;;-9.43;100.00
56992;BME280;42885;49.754;18.636;2023-02-07T01:28:28;100604.55;;;-9.42;100.00
56992;BME280;42885;49.754;18.636;2023-02-07T01:30:59;100606.28;;;-9.26;100.00
56992;BME280;42885;49.754;18.636;2023-02-07T01:33:30;100595.36;;;-9.61;100.00
56992;BME280;42885;49.754;18.636;2023-02-07T01:36:08;100594.53;;;-9.90;100.00
56992;BME280;42885;49.754;18.636;2023-02-07T01:38:40;100599.48;;;-9.48;100.00
56992;BME280;42885;49.754;18.636;2023-02-07T01:41:12;100599.32;;;-9.36;100.00
56992;BME280;42885;49.754;18.636;2023-02-07T01:46:30;100581.34;;;-9.85;100.00
56992;BME280;42885;49.754;18.636;2023-02-07T01:49:07;100571.69;;;-9.32;100.00
56992;BME280;42885;49.754;18.636;2023-02-07T01:51:41;100564.97;;;-9.31;100.00
56992;BME280;42885;49.754;18.636;2023-02-07T01:54:14;100562.03;;;-9.16;100.00
56992;BME280;42885;49.754;18.636;2023-02-07T01:56:53;100566.19;;;-9.01;100.00
56992;BME280;42885;49.754;18.636;2023-02-07T01:59:24;100562.23;;;-9.34;100.00
56992;BME280;42885;49.754;18.636;2023-02-07T02:01:56;100567.52;;;-9.68;100.00
56992;BME280;42885;49.754;18.636;2023-02-07T02:04:28;100555.52;;;-9.49;100.00
56992;BME280;42885;49.754;18.636;2023-02-07T02:07:00;100572.45;;;-10.00;100.00
56992;BME280;42885;49.754;18.636;2023-02-07T02:09:30;100558.00;;;-9.94;100.00
56992;BME280;42885;49.754;18.636;2023-02-07T02:17:49;100553.94;;;-10.27;100.00
56992;BME280;42885;49.754;18.636;2023-02-07T02:26:25;100570.31;;;-9.78;100.00
56992;BME280;42885;49.754;18.636;2023-02-07T02:34:39;100587.76;;;-10.05;100.00
56992;BME280;42885;49.754;18.636;2023-02-07T02:45:28;100582.65;;;-10.27;100.00
56992;BME280;42885;49.754;18.636;2023-02-07T02:48:00;100582.72;;;-10.12;100.00
56992;BME280;42885;49.754;18.636;2023-02-07T02:50:33;100584.42;;;-10.32;100.00
56992;BME280;42885;49.754;18.636;2023-02-07T02:53:05;100592.70;;;-10.28;100.00
56992;BME280;42885;49.754;18.636;2023-02-07T02:56:04;100590.94;;;-10.23;100.00
56992;BME280;42885;49.754;18.636;2023-02-07T03:10:06;100594.34;;;-10.29;100.00
56992;BME280;42885;49.754;18.636;2023-02-07T03:12:54;100594.96;;;-10.33;100.00
56992;BME280;42885;49.754;18.636;2023-02-07T03:18:41;100595.31;;;-10.27;100.00
56992;BME280;42885;49.754;18.636;2023-02-07T03:21:20;100598.33;;;-10.19;100.00
56992;BME280;42885;49.754;18.636;2023-02-07T03:23:52;100600.08;;;-10.18;100.00
56992;BME280;42885;49.754;18.636;2023-02-07T03:26:25;100609.92;;;-10.23;100.00
56992;BME280;42885;49.754;18.636;2023-02-07T03:28:58;100613.75;;;-10.29;100.00
56992;BME280;42885;49.754;18.636;2023-02-07T03:31:31;100616.54;;;-10.18;100.00
56992;BME280;42885;49.754;18.636;2023-02-07T03:34:13;100609.87;;;-10.09;100.00
56992;BME280;42885;49.754;18.636;2023-02-07T03:36:59;100614.03;;;-10.25;100.00
56992;BME280;42885;49.754;18.636;2023-02-07T03:39:30;100611.16;;;-10.44;100.00
56992;BME280;42885;49.754;18.636;2023-02-07T03:42:13;100603.39;;;-10.47;100.00
56992;BME280;42885;49.754;18.636;2023-02-07T03:44:45;100612.73;;;-10.46;100.00
56992;BME280;42885;49.754;18.636;2023-02-07T03:47:17;100610.37;;;-10.43;100.00
56992;BME280;42885;49.754;18.636;2023-02-07T03:49:49;100620.43;;;-10.58;100.00
56992;BME280;42885;49.754;18.636;2023-02-07T03:52:21;100621.97;;;-10.47;100.00
56992;BME280;42885;49.754;18.636;2023-02-07T03:54:52;100628.73;;;-10.74;100.00
56992;BME280;42885;49.754;18.636;2023-02-07T03:57:23;100618.50;;;-10.76;100.00
56992;BME280;42885;49.754;18.636;2023-02-07T03:59:54;100611.19;;;-10.85;100.00
56992;BME280;42885;49.754;18.636;2023-02-07T04:02:25;100614.30;;;-11.02;100.00
56992;BME280;42885;49.754;18.636;2023-02-07T04:04:56;100608.86;;;-10.95;100.00
56992;BME280;42885;49.754;18.636;2023-02-07T04:07:27;100603.69;;;-10.97;100.00
56992;BME280;42885;49.754;18.636;2023-02-07T04:09:58;100601.09;;;-10.78;100.00
56992;BME280;42885;49.754;18.636;2023-02-07T04:12:29;100598.17;;;-10.91;100.00
56992;BME280;42885;49.754;18.636;2023-02-07T04:15:03;100606.92;;;-10.99;100.00
56992;BME280;42885;49.754;18.636;2023-02-07T04:17:34;100611.48;;;-10.67;100.00
56992;BME280;42885;49.754;18.636;2023-02-07T04:20:06;100609.54;;;-10.64;100.00
56992;BME280;42885;49.754;18.636;2023-02-07T04:22:37;100606.31;;;-10.88;100.00
56992;BME280;42885;49.754;18.636;2023-02-07T04:25:08;100608.84;;;-10.88;100.00
56992;BME280;42885;49.754;18.636;2023-02-07T04:27:39;100612.95;;;-10.77;100.00
56992;BME280;42885;49.754;18.636;2023-02-07T04:30:11;100616.61;;;-11.32;100.00
56992;BME280;42885;49.754;18.636;2023-02-07T04:32:42;100608.27;;;-11.57;100.00
56992;BME280;42885;49.754;18.636;2023-02-07T04:35:13;100615.95;;;-11.62;100.00
56992;BME280;42885;49.754;18.636;2023-02-07T04:37:44;100611.98;;;-11.52;100.00
56992;BME280;42885;49.754;18.636;2023-02-07T04:40:15;100611.45;;;-11.66;100.00
56992;BME280;42885;49.754;18.636;2023-02-07T04:42:47;100607.78;;;-11.51;100.00
56992;BME280;42885;49.754;18.636;2023-02-07T04:45:18;100616.19;;;-11.45;100.00
56992;BME280;42885;49.754;18.636;2023-02-07T04:47:49;100609.13;;;-11.24;100.00
56992;BME280;42885;49.754;18.636;2023-02-07T04:50:20;100609.13;;;-11.24;100.00
56992;BME280;42885;49.754;18.636;2023-02-07T04:52:51;100614.03;;;-11.53;100.00
56992;BME280;42885;49.754;18.636;2023-02-07T04:55:22;100616.08;;;-11.40;100.00
56992;BME280;42885;49.754;18.636;2023-02-07T04:57:53;100611.84;;;-11.21;100.00
56992;BME280;42885;49.754;18.636;2023-02-07T05:00:24;100609.34;;;-11.08;100.00
56992;BME280;42885;49.754;18.636;2023-02-07T05:02:55;100618.09;;;-10.82;100.00
56992;BME280;42885;49.754;18.636;2023-02-07T05:05:26;100618.68;;;-11.00;100.00
56992;BME280;42885;49.754;18.636;2023-02-07T05:07:57;100630.77;;;-11.35;100.00
56992;BME280;42885;49.754;18.636;2023-02-07T05:10:28;100632.93;;;-11.27;100.00
56992;BME280;42885;49.754;18.636;2023-02-07T05:12:59;100646.47;;;-11.20;100.00
56992;BME280;42885;49.754;18.636;2023-02-07T05:15:30;100639.84;;;-11.18;100.00
56992;BME280;42885;49.754;18.636;2023-02-07T05:18:02;100642.86;;;-11.17;100.00
56992;BME280;42885;49.754;18.636;2023-02-07T05:20:33;100639.17;;;-11.22;100.00
56992;BME280;42885;49.754;18.636;2023-02-07T05:23:04;100635.68;;;-11.24;100.00
56992;BME280;42885;49.754;18.636;2023-02-07T05:25:35;100633.27;;;-11.16;100.00
56992;BME280;42885;49.754;18.636;2023-02-07T05:28:06;100630.65;;;-10.90;100.00
56992;BME280;42885;49.754;18.636;2023-02-07T05:30:38;100633.27;;;-11.02;100.00
56992;BME280;42885;49.754;18.636;2023-02-07T05:33:10;100636.48;;;-10.85;100.00
56992;BME280;42885;49.754;18.636;2023-02-07T05:35:43;100645.45;;;-10.63;100.00
56992;BME280;42885;49.754;18.636;2023-02-07T05:38:16;100641.84;;;-10.60;100.00
56992;BME280;42885;49.754;18.636;2023-02-07T05:40:47;100640.19;;;-10.53;100.00
56992;BME280;42885;49.754;18.636;2023-02-07T05:43:18;100642.35;;;-10.79;100.00
56992;BME280;42885;49.754;18.636;2023-02-07T05:45:49;100636.59;;;-10.83;100.00
56992;BME280;42885;49.754;18.636;2023-02-07T05:48:20;100634.94;;;-10.69;100.00
56992;BME280;42885;49.754;18.636;2023-02-07T05:50:52;100633.86;;;-10.73;100.00
56992;BME280;42885;49.754;18.636;2023-02-07T05:53:23;100624.53;;;-10.60;100.00
56992;BME280;42885;49.754;18.636;2023-02-07T05:55:54;100627.67;;;-10.36;100.00
56992;BME280;42885;49.754;18.636;2023-02-07T05:58:24;100628.59;;;-10.49;100.00
56992;BME280;42885;49.754;18.636;2023-02-07T06:00:55;100638.34;;;-10.13;100.00
56992;BME280;42885;49.754;18.636;2023-02-07T06:03:27;100644.42;;;-9.89;100.00
56992;BME280;42885;49.754;18.636;2023-02-07T06:05:58;100646.74;;;-9.57;100.00
56992;BME280;42885;49.754;18.636;2023-02-07T06:08:30;100637.70;;;-9.67;100.00
56992;BME280;42885;49.754;18.636;2023-02-07T06:11:01;100635.23;;;-9.59;100.00
56992;BME280;42885;49.754;18.636;2023-02-07T06:13:32;100643.42;;;-9.56;100.00
56992;BME280;42885;49.754;18.636;2023-02-07T06:16:03;100639.14;;;-9.57;100.00
56992;BME280;42885;49.754;18.636;2023-02-07T06:18:34;100634.98;;;-9.48;100.00
56992;BME280;42885;49.754;18.636;2023-02-07T06:21:05;100629.41;;;-9.64;100.00
56992;BME280;42885;49.754;18.636;2023-02-07T06:23:36;100637.78;;;-9.44;100.00
56992;BME280;42885;49.754;18.636;2023-02-07T06:26:07;100640.58;;;-9.54;100.00
56992;BME280;42885;49.754;18.636;2023-02-07T06:28:38;100639.47;;;-9.51;100.00
56992;BME280;42885;49.754;18.636;2023-02-07T06:31:09;100640.84;;;-9.28;100.00
56992;BME280;42885;49.754;18.636;2023-02-07T06:33:41;100642.05;;;-9.36;100.00
56992;BME280;42885;49.754;18.636;2023-02-07T06:36:12;100639.14;;;-9.05;100.00
56992;BME280;42885;49.754;18.636;2023-02-07T06:38:43;100634.93;;;-8.90;100.00
56992;BME280;42885;49.754;18.636;2023-02-07T06:41:14;100636.42;;;-8.93;100.00
56992;BME280;42885;49.754;18.636;2023-02-07T06:43:45;100640.40;;;-8.75;100.00
56992;BME280;42885;49.754;18.636;2023-02-07T06:46:16;100645.59;;;-8.49;100.00
56992;BME280;42885;49.754;18.636;2023-02-07T06:48:47;100652.62;;;-8.36;100.00
56992;BME280;42885;49.754;18.636;2023-02-07T06:51:18;100647.12;;;-8.52;100.00
56992;BME280;42885;49.754;18.636;2023-02-07T06:53:50;100648.39;;;-8.52;100.00
56992;BME280;42885;49.754;18.636;2023-02-07T06:56:21;100644.94;;;-8.30;100.00
56992;BME280;42885;49.754;18.636;2023-02-07T06:58:52;100649.39;;;-8.34;100.00
56992;BME280;42885;49.754;18.636;2023-02-07T07:01:23;100649.67;;;-8.36;100.00
56992;BME280;42885;49.754;18.636;2023-02-07T07:03:54;100656.09;;;-8.03;100.00
56992;BME280;42885;49.754;18.636;2023-02-07T07:06:25;100645.88;;;-7.96;100.00
56992;BME280;42885;49.754;18.636;2023-02-07T07:08:56;100653.02;;;-8.05;100.00
56992;BME280;42885;49.754;18.636;2023-02-07T07:11:27;100648.58;;;-7.84;100.00
56992;BME280;42885;49.754;18.636;2023-02-07T07:13:58;100652.01;;;-7.84;100.00
56992;BME280;42885;49.754;18.636;2023-02-07T07:16:29;100654.35;;;-8.04;100.00
56992;BME280;42885;49.754;18.636;2023-02-07T07:19:00;100655.08;;;-7.56;100.00
56992;BME280;42885;49.754;18.636;2023-02-07T07:21:31;100643.95;;;-7.42;100.00
56992;BME280;42885;49.754;18.636;2023-02-07T07:24:02;100648.80;;;-7.38;100.00
56992;BME280;42885;49.754;18.636;2023-02-07T07:26:34;100653.25;;;-7.26;100.00
56992;BME280;42885;49.754;18.636;2023-02-07T07:29:05;100640.48;;;-7.09;100.00
56992;BME280;42885;49.754;18.636;2023-02-07T07:31:37;100646.23;;;-7.22;100.00
56992;BME280;42885;49.754;18.636;2023-02-07T07:34:08;100648.66;;;-6.80;100.00
56992;BME280;42885;49.754;18.636;2023-02-07T07:36:39;100650.14;;;-7.02;100.00
56992;BME280;42885;49.754;18.636;2023-02-07T07:39:10;100654.97;;;-6.45;100.00
56992;BME280;42885;49.754;18.636;2023-02-07T07:41:42;100650.52;;;-6.86;100.00
56992;BME280;42885;49.754;18.636;2023-02-07T07:44:14;100657.13;;;-6.63;100.00
56992;BME280;42885;49.754;18.636;2023-02-07T07:46:45;100643.59;;;-6.52;100.00
56992;BME280;42885;49.754;18.636;2023-02-07T07:49:16;100639.30;;;-6.53;100.00
56992;BME280;42885;49.754;18.636;2023-02-07T07:51:47;100644.87;;;-6.52;100.00
56992;BME280;42885;49.754;18.636;2023-02-07T07:54:18;100645.29;;;-6.53;100.00
56992;BME280;42885;49.754;18.636;2023-02-07T07:56:49;100637.43;;;-6.57;100.00
56992;BME280;42885;49.754;18.636;2023-02-07T07:59:20;100647.16;;;-6.58;100.00
56992;BME280;42885;49.754;18.636;2023-02-07T08:01:51;100649.91;;;-6.54;100.00
56992;BME280;42885;49.754;18.636;2023-02-07T08:04:22;100653.11;;;-6.40;100.00
56992;BME280;42885;49.754;18.636;2023-02-07T08:06:53;100650.00;;;-6.24;100.00
56992;BME280;42885;49.754;18.636;2023-02-07T08:09:24;100654.67;;;-6.33;100.00
56992;BME280;42885;49.754;18.636;2023-02-07T08:11:55;100656.45;;;-6.23;100.00
56992;BME280;42885;49.754;18.636;2023-02-07T08:14:26;100657.33;;;-6.02;100.00
56992;BME280;42885;49.754;18.636;2023-02-07T08:16:57;100653.72;;;-5.78;100.00
56992;BME280;42885;49.754;18.636;2023-02-07T08:19:28;100647.82;;;-5.67;100.00
56992;BME280;42885;49.754;18.636;2023-02-07T08:21:59;100647.28;;;-5.70;100.00
56992;BME280;42885;49.754;18.636;2023-02-07T08:24:30;100644.98;;;-5.44;100.00
56992;BME280;42885;49.754;18.636;2023-02-07T08:27:03;100652.91;;;-5.37;100.00
56992;BME280;42885;49.754;18.636;2023-02-07T08:29:34;100640.30;;;-5.54;100.00
56992;BME280;42885;49.754;18.636;2023-02-07T08:32:05;100639.41;;;-5.45;100.00
56992;BME280;42885;49.754;18.636;2023-02-07T08:34:36;100637.30;;;-5.03;100.00
56992;BME280;42885;49.754;18.636;2023-02-07T08:37:07;100634.72;;;-5.14;100.00
56992;BME280;42885;49.754;18.636;2023-02-07T08:39:38;100628.11;;;-5.30;100.00
56992;BME280;42885;49.754;18.636;2023-02-07T08:42:09;100628.22;;;-5.17;100.00
56992;BME280;42885;49.754;18.636;2023-02-07T08:44:40;100626.80;;;-4.78;100.00
56992;BME280;42885;49.754;18.636;2023-02-07T08:47:11;100629.29;;;-4.58;100.00
56992;BME280;42885;49.754;18.636;2023-02-07T08:49:42;100634.34;;;-4.92;100.00
56992;BME280;42885;49.754;18.636;2023-02-07T08:52:14;100639.18;;;-4.77;100.00
56992;BME280;42885;49.754;18.636;2023-02-07T08:54:45;100643.77;;;-4.36;100.00
56992;BME280;42885;49.754;18.636;2023-02-07T08:57:15;100640.00;;;-4.34;100.00
56992;BME280;42885;49.754;18.636;2023-02-07T08:59:49;100644.83;;;-4.31;100.00
56992;BME280;42885;49.754;18.636;2023-02-07T09:02:20;100639.63;;;-4.55;100.00
56992;BME280;42885;49.754;18.636;2023-02-07T09:04:51;100631.97;;;-4.21;100.00
56992;BME280;42885;49.754;18.636;2023-02-07T09:07:22;100630.48;;;-4.27;100.00
56992;BME280;42885;49.754;18.636;2023-02-07T09:09:54;100636.82;;;-3.81;100.00
56992;BME280;42885;49.754;18.636;2023-02-07T09:12:25;100638.67;;;-4.13;100.00
56992;BME280;42885;49.754;18.636;2023-02-07T09:14:56;100633.66;;;-4.10;100.00
56992;BME280;42885;49.754;18.636;2023-02-07T09:17:27;100634.52;;;-4.21;100.00
56992;BME280;42885;49.754;18.636;2023-02-07T09:19:58;100632.05;;;-4.31;100.00
56992;BME280;42885;49.754;18.636;2023-02-07T09:22:29;100635.22;;;-4.13;100.00
56992;BME280;42885;49.754;18.636;2023-02-07T09:25:00;100635.33;;;-4.45;100.00
56992;BME280;42885;49.754;18.636;2023-02-07T09:27:31;100642.44;;;-4.15;100.00
56992;BME280;42885;49.754;18.636;2023-02-07T09:30:02;100632.72;;;-3.65;100.00
56992;BME280;42885;49.754;18.636;2023-02-07T09:32:33;100632.45;;;-3.72;100.00
56992;BME280;42885;49.754;18.636;2023-02-07T09:35:04;100631.73;;;-3.93;100.00
56992;BME280;42885;49.754;18.636;2023-02-07T09:37:37;100634.13;;;-3.97;100.00
56992;BME280;42885;49.754;18.636;2023-02-07T09:40:13;100622.86;;;-3.54;100.00
56992;BME280;42885;49.754;18.636;2023-02-07T09:43:34;100620.16;;;-3.70;100.00
56992;BME280;42885;49.754;18.636;2023-02-07T09:45:19;100623.67;;;-3.79;100.00
56992;BME280;42885;49.754;18.636;2023-02-07T09:47:57;100623.92;;;-3.36;100.00
56992;BME280;42885;49.754;18.636;2023-02-07T09:50:35;100625.36;;;-3.55;100.00
56992;BME280;42885;49.754;18.636;2023-02-07T09:53:10;100631.21;;;-3.71;100.00
56992;BME280;42885;49.754;18.636;2023-02-07T10:01:22;100617.70;;;-3.16;100.00
56992;BME280;42885;49.754;18.636;2023-02-07T10:06:27;100623.80;;;-3.13;100.00
56992;BME280;42885;49.754;18.636;2023-02-07T10:08:59;100619.02;;;-2.89;100.00
56992;BME280;42885;49.754;18.636;2023-02-07T10:11:46;100622.97;;;-2.73;100.00
56992;BME280;42885;49.754;18.636;2023-02-07T10:23:01;100609.75;;;-2.58;100.00
56992;BME280;42885;49.754;18.636;2023-02-07T10:31:06;100601.72;;;-2.25;100.00
56992;BME280;42885;49.754;18.636;2023-02-07T10:33:39;100591.95;;;-2.39;100.00
56992;BME280;42885;49.754;18.636;2023-02-07T10:36:13;100594.83;;;-2.28;100.00
56992;BME280;42885;49.754;18.636;2023-02-07T10:39:03;100594.65;;;-2.19;100.00
56992;BME280;42885;49.754;18.636;2023-02-07T10:41:40;100593.81;;;-2.18;100.00
56992;BME280;42885;49.754;18.636;2023-02-07T10:44:16;100584.53;;;-2.13;100.00
56992;BME280;42885;49.754;18.636;2023-02-07T10:47:02;100592.86;;;-1.91;100.00
56992;BME280;42885;49.754;18.636;2023-02-07T10:49:37;100587.47;;;-1.85;100.00
56992;BME280;42885;49.754;18.636;2023-02-07T10:52:25;100592.48;;;-1.89;100.00
56992;BME280;42885;49.754;18.636;2023-02-07T10:55:01;100593.00;;;-2.01;100.00
56992;BME280;42885;49.754;18.636;2023-02-07T10:57:33;100587.54;;;-1.98;100.00
56992;BME280;42885;49.754;18.636;2023-02-07T11:00:28;100584.65;;;-1.94;100.00
56992;BME280;42885;49.754;18.636;2023-02-07T11:03:06;100586.26;;;-1.98;100.00
56992;BME280;42885;49.754;18.636;2023-02-07T11:05:50;100586.19;;;-1.85;100.00
56992;BME280;42885;49.754;18.636;2023-02-07T11:08:18;100584.20;;;-1.95;100.00
56992;BME280;42885;49.754;18.636;2023-02-07T11:10:53;100579.89;;;-1.96;100.00
56992;BME280;42885;49.754;18.636;2023-02-07T11:13:27;100580.62;;;-1.70;100.00
56992;BME280;42885;49.754;18.636;2023-02-07T11:16:06;100583.06;;;-2.05;100.00
56992;BME280;42885;49.754;18.636;2023-02-07T11:18:52;100579.34;;;-1.70;100.00
56992;BME280;42885;49.754;18.636;2023-02-07T11:21:24;100584.05;;;-1.85;100.00
56992;BME280;42885;49.754;18.636;2023-02-07T11:23:58;100564.78;;;-1.69;100.00
56992;BME280;42885;49.754;18.636;2023-02-07T11:26:30;100564.78;;;-1.69;100.00
56992;BME280;42885;49.754;18.636;2023-02-07T11:29:07;100566.73;;;-1.60;100.00
56992;BME280;42885;49.754;18.636;2023-02-07T11:31:38;100562.95;;;-1.57;100.00
56992;BME280;42885;49.754;18.636;2023-02-07T11:39:43;100564.52;;;-1.62;100.00
56992;BME280;42885;49.754;18.636;2023-02-07T11:42:20;100562.44;;;-1.61;100.00
56992;BME280;42885;49.754;18.636;2023-02-07T11:44:51;100559.88;;;-1.44;100.00
56992;BME280;42885;49.754;18.636;2023-02-07T11:47:25;100561.67;;;-1.57;100.00
56992;BME280;42885;49.754;18.636;2023-02-07T11:49:59;100560.00;;;-1.21;100.00
56992;BME280;42885;49.754;18.636;2023-02-07T11:52:32;100561.55;;;-1.11;100.00
56992;BME280;42885;49.754;18.636;2023-02-07T11:55:07;100564.14;;;-1.27;100.00
56992;BME280;42885;49.754;18.636;2023-02-07T11:57:39;100564.51;;;-0.93;99.07
56992;BME280;42885;49.754;18.636;2023-02-07T12:03:00;100555.33;;;-0.63;98.10
56992;BME280;42885;49.754;18.636;2023-02-07T12:05:40;100555.52;;;-0.74;97.53
56992;BME280;42885;49.754;18.636;2023-02-07T12:08:17;100557.50;;;-0.62;100.00
56992;BME280;42885;49.754;18.636;2023-02-07T12:11:03;100553.05;;;-0.70;99.02
56992;BME280;42885;49.754;18.636;2023-02-07T12:13:40;100552.02;;;-0.59;97.88
56992;BME280;42885;49.754;18.636;2023-02-07T12:16:20;100545.19;;;-0.76;98.71
56992;BME280;42885;49.754;18.636;2023-02-07T12:21:53;100560.52;;;-0.61;98.52
56992;BME280;42885;49.754;18.636;2023-02-07T12:24:30;100549.69;;;-0.67;97.67
56992;BME280;42885;49.754;18.636;2023-02-07T12:27:14;100550.58;;;-0.65;99.13
56992;BME280;42885;49.754;18.636;2023-02-07T12:32:57;100552.56;;;-0.72;100.00
56992;BME280;42885;49.754;18.636;2023-02-07T12:35:39;100544.48;;;-0.70;100.00
56992;BME280;42885;49.754;18.636;2023-02-07T12:38:23;100553.74;;;-0.58;100.00
56992;BME280;42885;49.754;18.636;2023-02-07T12:41:23;100550.08;;;-0.69;100.00
56992;BME280;42885;49.754;18.636;2023-02-07T12:55:44;100549.58;;;-0.91;100.00
56992;BME280;42885;49.754;18.636;2023-02-07T13:01:04;100548.39;;;-0.86;100.00
56992;BME280;42885;49.754;18.636;2023-02-07T13:06:33;100545.83;;;-0.67;100.00
56992;BME280;42885;49.754;18.636;2023-02-07T13:09:09;100536.88;;;-0.64;100.00
56992;BME280;42885;49.754;18.636;2023-02-07T13:12:01;100532.87;;;-0.51;100.00
56992;BME280;42885;49.754;18.636;2023-02-07T13:17:42;100528.66;;;-0.47;100.00
56992;BME280;42885;49.754;18.636;2023-02-07T13:23:30;100530.55;;;-0.59;100.00
56992;BME280;42885;49.754;18.636;2023-02-07T13:26:00;100526.54;;;-0.86;100.00
56992;BME280;42885;49.754;18.636;2023-02-07T13:31:20;100527.44;;;-0.84;100.00
56992;BME280;42885;49.754;18.636;2023-02-07T13:33:53;100532.66;;;-1.00;100.00
56992;BME280;42885;49.754;18.636;2023-02-07T13:36:36;100531.82;;;-0.99;100.00
56992;BME280;42885;49.754;18.636;2023-02-07T13:39:35;100532.25;;;-1.00;100.00
56992;BME280;42885;49.754;18.636;2023-02-07T13:48:15;100529.05;;;-0.89;100.00
56992;BME280;42885;49.754;18.636;2023-02-07T13:56:11;100537.98;;;-1.10;100.00
56992;BME280;42885;49.754;18.636;2023-02-07T14:01:37;100547.49;;;-1.25;100.00
56992;BME280;42885;49.754;18.636;2023-02-07T14:04:12;100543.69;;;-1.04;100.00
56992;BME280;42885;49.754;18.636;2023-02-07T14:09:39;100534.70;;;-1.22;100.00
56992;BME280;42885;49.754;18.636;2023-02-07T14:12:28;100538.11;;;-1.23;100.00
56992;BME280;42885;49.754;18.636;2023-02-07T14:18:05;100543.97;;;-1.46;100.00
56992;BME280;42885;49.754;18.636;2023-02-07T14:23:17;100544.88;;;-0.91;100.00
56992;BME280;42885;49.754;18.636;2023-02-07T14:25:48;100544.40;;;-1.12;100.00
56992;BME280;42885;49.754;18.636;2023-02-07T14:28:29;100536.38;;;-1.42;100.00
56992;BME280;42885;49.754;18.636;2023-02-07T14:31:29;100532.73;;;-1.84;100.00
56992;BME280;42885;49.754;18.636;2023-02-07T14:33:47;100531.18;;;-1.45;100.00
56992;BME280;42885;49.754;18.636;2023-02-07T14:36:18;100528.77;;;-1.72;100.00
56992;BME280;42885;49.754;18.636;2023-02-07T14:38:58;100531.45;;;-1.68;100.00
56992;BME280;42885;49.754;18.636;2023-02-07T14:41:33;100528.27;;;-1.75;100.00
56992;BME280;42885;49.754;18.636;2023-02-07T14:44:06;100531.72;;;-1.74;100.00
56992;BME280;42885;49.754;18.636;2023-02-07T14:46:41;100531.35;;;-1.71;100.00
56992;BME280;42885;49.754;18.636;2023-02-07T14:49:29;100536.64;;;-1.66;100.00
56992;BME280;42885;49.754;18.636;2023-02-07T14:52:02;100528.33;;;-1.72;100.00
56992;BME280;42885;49.754;18.636;2023-02-07T14:57:26;100517.81;;;-1.83;100.00
56992;BME280;42885;49.754;18.636;2023-02-07T15:02:51;100523.98;;;-1.58;100.00
56992;BME280;42885;49.754;18.636;2023-02-07T15:05:35;100527.66;;;-1.66;100.00
56992;BME280;42885;49.754;18.636;2023-02-07T15:08:13;100524.56;;;-1.86;100.00
56992;BME280;42885;49.754;18.636;2023-02-07T15:11:02;100525.15;;;-1.79;100.00
56992;BME280;42885;49.754;18.636;2023-02-07T15:13:34;100517.64;;;-1.89;100.00